createdAt,value
2022-08-07T00:01:43.170Z,99954.75
2022-08-07T00:05:28.250Z,99954.81
2022-08-07T00:09:35.711Z,99953.97
2022-08-07T00:13:40.591Z,99942.75
2022-08-07T00:17:46.561Z,99943.69
2022-08-07T00:21:56.246Z,99943.78
2022-08-07T00:26:13.363Z,99929.84
2022-08-07T00:30:21.648Z,99929.84
2022-08-07T00:34:30.390Z,99934.31
2022-08-07T00:38:36.545Z,99923.88
2022-08-07T00:42:38.543Z,99926.56
2022-08-07T00:46:41.302Z,99924.78
2022-08-07T00:50:51.331Z,99922.22
2022-08-07T00:54:54.220Z,99917.94
2022-08-07T00:58:56.400Z,99913.72
2022-08-07T01:02:58.041Z,99916.47
2022-08-07T01:06:59.634Z,99908.56
2022-08-07T01:11:23.670Z,99903.44
2022-08-07T01:16:00.593Z,99896.50
2022-08-07T01:19:52.423Z,99894.78
2022-08-07T01:23:57.416Z,99898.34
2022-08-07T01:27:59.069Z,99905.34
2022-08-07T01:32:05.602Z,99900.09
2022-08-07T01:36:15.126Z,99898.44
2022-08-07T01:40:21.709Z,99900.25
2022-08-07T01:44:25.675Z,99902.84
2022-08-07T01:48:30.302Z,99895.03
2022-08-07T01:52:35.432Z,99894.22
2022-08-07T01:56:56.361Z,99896.00
2022-08-07T02:01:10.046Z,99900.59
2022-08-07T02:05:48.222Z,99891.94
2022-08-07T02:09:58.355Z,99884.16
2022-08-07T02:14:02.477Z,99891.22
2022-08-07T02:18:05.564Z,99890.22
2022-08-07T02:22:12.666Z,99883.63
2022-08-07T02:26:32.941Z,99878.72
2022-08-07T02:30:36.787Z,99878.06
2022-08-07T02:34:51.084Z,99875.66
2022-08-07T02:38:57.027Z,99874.97
2022-08-07T02:42:59.904Z,99871.69
2022-08-07T02:47:03.397Z,99876.19
2022-08-07T02:51:28.999Z,99871.13
2022-08-07T02:56:03.731Z,99862.50
2022-08-07T03:00:05.117Z,99853.84
2022-08-07T03:04:14.368Z,99855.63
2022-08-07T03:08:17.997Z,99851.38
2022-08-07T03:12:30.918Z,99847.09
2022-08-07T03:16:34.605Z,99848.88
2022-08-07T03:20:36.361Z,99850.69
2022-08-07T03:24:37.847Z,99850.75
2022-08-07T03:28:42.168Z,99846.47
2022-08-07T03:32:57.036Z,99843.03
2022-08-07T03:37:12.316Z,99850.88
2022-08-07T03:41:15.346Z,99851.75
2022-08-07T03:45:29.865Z,99855.28
2022-08-07T03:49:33.519Z,99861.38
2022-08-07T03:54:05.884Z,99850.94
2022-08-07T03:59:07.360Z,99856.16
2022-08-07T04:02:19.099Z,99853.59
2022-08-07T04:06:38.420Z,99863.09
2022-08-07T04:10:42.208Z,99863.97
2022-08-07T04:14:46.242Z,99859.63
2022-08-07T04:18:59.110Z,99857.91
2022-08-07T04:23:06.424Z,99853.59
2022-08-07T04:27:15.238Z,99866.59
2022-08-07T04:31:39.017Z,99864.00
2022-08-07T04:35:50.144Z,99875.25
2022-08-07T04:39:52.876Z,99881.34
2022-08-07T04:44:12.844Z,99881.31
2022-08-07T04:48:27.889Z,99889.13
2022-08-07T04:52:56.624Z,99885.63
2022-08-07T04:58:24.300Z,99883.94
2022-08-07T05:01:54.445Z,99895.22
2022-08-07T05:06:43.179Z,99893.41
2022-08-07T05:10:50.921Z,99891.63
2022-08-07T05:15:22.979Z,99899.34
2022-08-07T05:19:32.882Z,99894.09
2022-08-07T05:23:55.245Z,99903.56
2022-08-07T05:28:02.894Z,99906.09
2022-08-07T05:32:20.838Z,99897.31
2022-08-07T05:36:30.586Z,99900.72
2022-08-07T05:40:50.313Z,99902.00
2022-08-07T05:45:04.453Z,99903.41
2022-08-07T05:49:16.053Z,99908.34
2022-08-07T05:54:13.344Z,99914.78
2022-08-07T05:57:42.674Z,99908.28
2022-08-07T06:01:47.566Z,99912.25
2022-08-07T06:05:49.815Z,99909.53
2022-08-07T06:10:05.701Z,99914.28
2022-08-07T06:14:12.652Z,99913.91
2022-08-07T06:18:24.159Z,99910.72
2022-08-07T06:22:38.343Z,99922.41
2022-08-07T06:26:43.775Z,99923.91
2022-08-07T06:30:46.072Z,99914.47
2022-08-07T06:34:52.387Z,99912.03
2022-08-07T06:38:59.340Z,99913.81
2022-08-07T06:43:21.188Z,99903.94
2022-08-07T06:47:24.460Z,99907.56
2022-08-07T06:51:33.424Z,99903.38
2022-08-07T06:56:00.032Z,99907.34
2022-08-07T07:00:13.971Z,99906.13
2022-08-07T07:04:28.342Z,99904.56
2022-08-07T07:08:35.939Z,99909.94
2022-08-07T07:12:53.321Z,99907.34
2022-08-07T07:16:59.249Z,99903.19
2022-08-07T07:21:13.607Z,99898.06
2022-08-07T07:26:32.017Z,99902.56
2022-08-07T07:30:08.772Z,99897.16
2022-08-07T07:34:16.699Z,99899.56
2022-08-07T07:38:20.813Z,99900.38
2022-08-07T07:42:32.820Z,99883.31
2022-08-07T07:46:53.883Z,99886.44
2022-08-07T07:50:59.469Z,99883.88
2022-08-07T07:55:05.741Z,99885.34
2022-08-07T07:59:08.360Z,99883.00
2022-08-07T08:03:16.303Z,99884.44
2022-08-07T08:07:20.235Z,99878.41
2022-08-07T08:11:47.176Z,99875.94
2022-08-07T08:15:59.057Z,99870.28
2022-08-07T08:20:17.859Z,99872.59
2022-08-07T08:24:51.282Z,99872.50
2022-08-07T08:29:00.758Z,99863.88
2022-08-07T08:33:05.361Z,99871.59
2022-08-07T08:38:00.275Z,99862.38
2022-08-07T08:41:59.508Z,99855.22
2022-08-07T08:46:16.774Z,99861.28
2022-08-07T08:50:28.366Z,99860.13
2022-08-07T08:54:46.853Z,99862.41
2022-08-07T08:59:08.666Z,99853.25
2022-08-07T09:03:49.314Z,99853.41
2022-08-07T09:08:03.166Z,99850.69
2022-08-07T09:12:31.725Z,99845.78
2022-08-07T09:16:48.717Z,99842.53
2022-08-07T09:21:33.922Z,99845.69
2022-08-07T09:25:54.200Z,99848.91
2022-08-07T09:30:05.170Z,99837.06
2022-08-07T09:34:26.348Z,99835.34
2022-08-07T09:38:43.676Z,99831.63
2022-08-07T09:43:03.947Z,99836.53
2022-08-07T09:48:00.044Z,99831.19
2022-08-07T09:52:15.852Z,99820.97
2022-08-07T09:56:47.194Z,99823.41
2022-08-07T10:01:51.596Z,99829.72
2022-08-07T10:06:12.495Z,99811.88
2022-08-07T10:10:25.156Z,99802.13
2022-08-07T10:15:02.066Z,99795.09
2022-08-07T10:19:41.904Z,99788.56
2022-08-07T10:24:05.620Z,99788.06
2022-08-07T10:28:39.386Z,99781.59
2022-08-07T10:33:01.179Z,99782.22
2022-08-07T10:37:26.567Z,99782.34
2022-08-07T10:42:01.655Z,99783.66
2022-08-07T10:46:20.408Z,99769.75
2022-08-07T10:50:50.026Z,99761.31
2022-08-07T10:55:01.613Z,99757.75
2022-08-07T10:59:47.273Z,99762.75
2022-08-07T11:04:16.651Z,99764.19
2022-08-07T11:08:58.658Z,99759.72
2022-08-07T11:13:07.294Z,99749.00
2022-08-07T11:17:50.092Z,99747.72
2022-08-07T11:22:36.124Z,99738.22
2022-08-07T11:27:03.482Z,99741.50
2022-08-07T11:31:16.660Z,99734.34
2022-08-07T11:35:26.747Z,99735.50
2022-08-07T11:40:01.088Z,99724.59
2022-08-07T11:44:19.021Z,99727.16
2022-08-07T11:49:27.807Z,99728.59
2022-08-07T11:53:37.396Z,99723.88
2022-08-07T11:58:02.714Z,99711.34
2022-08-07T12:02:30.257Z,99707.56
2022-08-07T12:06:55.427Z,99706.94
2022-08-07T12:11:35.297Z,99713.53
2022-08-07T12:16:05.619Z,99703.31
2022-08-07T12:20:30.110Z,99715.69
2022-08-07T12:25:07.763Z,99713.19
2022-08-07T12:29:20.390Z,99706.25
2022-08-07T12:34:00.642Z,99689.44
2022-08-07T12:38:09.066Z,99688.09
2022-08-07T12:42:13.543Z,99691.38
2022-08-07T12:46:16.071Z,99693.16
2022-08-07T12:50:49.467Z,99678.44
2022-08-07T12:55:03.690Z,99679.53
2022-08-07T12:59:08.598Z,99675.63
2022-08-07T13:03:54.775Z,99674.38
2022-08-07T13:08:11.855Z,99666.94
2022-08-07T13:12:27.681Z,99664.06
2022-08-07T13:16:50.716Z,99666.34
2022-08-07T13:21:10.129Z,99654.63
2022-08-07T13:25:24.222Z,99650.38
2022-08-07T13:29:46.891Z,99643.13
2022-08-07T13:34:32.034Z,99637.88
2022-08-07T13:38:28.692Z,99638.78
2022-08-07T13:42:39.215Z,99635.38
2022-08-07T13:46:49.418Z,99620.34
2022-08-07T13:51:00.526Z,99627.47
2022-08-07T13:55:19.093Z,99632.31
2022-08-07T13:59:25.482Z,99618.56
2022-08-07T14:04:06.835Z,99622.84
2022-08-07T14:08:00.231Z,99612.47
2022-08-07T14:12:10.411Z,99617.00
2022-08-07T14:16:17.355Z,99613.47
2022-08-07T14:20:43.456Z,99598.19
2022-08-07T14:24:51.328Z,99603.28
2022-08-07T14:28:57.424Z,99589.56
2022-08-07T14:33:04.713Z,99605.88
2022-08-07T14:37:16.336Z,99602.44
2022-08-07T14:41:33.903Z,99600.28
2022-08-07T14:45:57.098Z,99577.38
2022-08-07T14:49:59.558Z,99585.09
2022-08-07T14:58:31.290Z,99578.03
2022-08-07T15:02:37.139Z,99577.97
2022-08-07T15:06:40.218Z,99577.09
2022-08-07T15:10:59.142Z,99584.06
2022-08-07T15:15:09.289Z,99580.13
2022-08-07T15:20:31.835Z,99581.13
2022-08-07T15:25:15.315Z,99572.59
2022-08-07T15:28:35.116Z,99576.06
2022-08-07T15:32:50.760Z,99570.66
2022-08-07T15:37:06.842Z,99569.44
2022-08-07T15:45:58.224Z,99566.50
2022-08-07T15:50:06.710Z,99564.88
2022-08-07T15:54:12.219Z,99557.88
2022-08-07T15:58:20.749Z,99565.97
2022-08-07T16:02:46.594Z,99561.66
2022-08-07T16:06:52.646Z,99554.59
2022-08-07T16:11:02.559Z,99552.63
2022-08-07T16:15:07.096Z,99544.78
2022-08-07T16:19:41.746Z,99557.09
2022-08-07T16:23:53.863Z,99559.63
2022-08-07T16:28:43.468Z,99555.94
2022-08-07T16:32:54.662Z,99556.38
2022-08-07T16:38:02.997Z,99549.75
2022-08-07T16:41:59.968Z,99550.72
2022-08-07T16:47:06.815Z,99550.94
2022-08-07T16:51:20.483Z,99553.34
2022-08-07T16:55:47.355Z,99551.38
2022-08-07T17:00:00.977Z,99553.84
2022-08-07T17:04:24.611Z,99557.09
2022-08-07T17:09:13.895Z,99550.41
2022-08-07T17:13:41.407Z,99547.72
2022-08-07T17:18:28.161Z,99546.84
2022-08-07T17:22:38.830Z,99555.97
2022-08-07T17:27:00.137Z,99551.09
2022-08-07T17:31:17.805Z,99567.97
2022-08-07T17:35:49.743Z,99550.91
2022-08-07T17:40:14.676Z,99573.19
2022-08-07T17:44:41.399Z,99560.44
2022-08-07T17:49:00.011Z,99562.88
2022-08-07T17:53:59.601Z,99567.34
2022-08-07T17:57:58.711Z,99566.13
2022-08-07T18:02:56.437Z,99572.09
2022-08-07T18:07:20.851Z,99567.53
2022-08-07T18:12:17.988Z,99567.16
2022-08-07T18:16:12.714Z,99563.50
2022-08-07T18:21:12.557Z,99575.63
2022-08-07T18:24:51.058Z,99575.31
2022-08-07T18:30:07.038Z,99580.25
2022-08-07T18:34:06.243Z,99581.13
2022-08-07T18:38:55.358Z,99594.16
2022-08-07T18:43:09.074Z,99592.22
2022-08-07T18:47:23.544Z,99598.28
2022-08-07T18:52:34.935Z,99606.84
2022-08-07T18:56:06.108Z,99602.81
2022-08-07T19:00:32.730Z,99603.97
2022-08-07T19:04:57.855Z,99602.63
2022-08-07T19:09:56.403Z,99620.00
2022-08-07T19:14:20.319Z,99624.59
2022-08-07T19:18:35.040Z,99629.66
2022-08-07T19:23:18.655Z,99634.50
2022-08-07T19:28:56.833Z,99642.78
2022-08-07T19:32:10.894Z,99645.63
2022-08-07T19:36:15.546Z,99644.84
2022-08-07T19:40:38.536Z,99651.13
2022-08-07T19:44:56.701Z,99655.53
2022-08-07T19:49:05.513Z,99664.00
2022-08-07T19:54:31.744Z,99664.56
2022-08-07T19:58:03.350Z,99672.03
2022-08-07T20:02:05.328Z,99673.41
2022-08-07T20:06:15.232Z,99675.66
2022-08-07T20:10:35.847Z,99680.53
2022-08-07T20:14:53.903Z,99682.00
2022-08-07T20:19:02.359Z,99686.00
2022-08-07T20:23:33.045Z,99697.03
2022-08-07T20:27:47.433Z,99696.47
2022-08-07T20:31:51.014Z,99701.19
2022-08-07T20:36:03.085Z,99701.56
2022-08-07T20:40:33.149Z,99696.56
2022-08-07T20:44:35.343Z,99696.91
2022-08-07T20:48:57.874Z,99704.28
2022-08-07T20:53:01.641Z,99695.00
2022-08-07T20:57:08.341Z,99699.69
2022-08-07T21:01:19.815Z,99696.53
2022-08-07T21:05:25.718Z,99696.00
2022-08-07T21:09:52.723Z,99696.53
2022-08-07T21:14:31.794Z,99692.63
2022-08-07T21:18:41.238Z,99698.16
2022-08-07T21:22:53.556Z,99703.66
2022-08-07T21:27:01.574Z,99696.84
2022-08-07T21:31:18.169Z,99702.38
2022-08-07T21:36:04.799Z,99698.41
2022-08-07T21:40:18.845Z,99697.03
2022-08-07T21:44:36.289Z,99695.41
2022-08-07T21:48:42.551Z,99704.53
2022-08-07T21:53:07.835Z,99702.84
2022-08-07T21:57:40.090Z,99699.63
2022-08-07T22:02:10.123Z,99697.91
2022-08-07T22:06:29.974Z,99699.00
2022-08-07T22:10:35.460Z,99707.94
2022-08-07T22:15:03.337Z,99715.94
2022-08-07T22:20:01.128Z,99716.84
2022-08-07T22:24:32.828Z,99717.06
2022-08-07T22:28:52.897Z,99713.69
2022-08-07T22:33:09.324Z,99720.91
2022-08-07T22:37:27.603Z,99726.28
2022-08-07T22:42:25.911Z,99720.25
2022-08-07T22:47:08.849Z,99712.50
2022-08-07T22:51:37.141Z,99731.09
2022-08-07T22:55:49.955Z,99730.44
2022-08-07T22:59:56.753Z,99733.34
2022-08-07T23:04:20.033Z,99731.63
2022-08-07T23:10:03.849Z,99733.56
2022-08-07T23:14:10.607Z,99734.75
2022-08-07T23:18:42.442Z,99738.44
2022-08-07T23:23:11.081Z,99743.88
2022-08-07T23:28:20.386Z,99736.97
2022-08-07T23:37:19.416Z,99742.06
2022-08-07T23:41:47.499Z,99742.69
2022-08-07T23:46:30.933Z,99739.47
2022-08-07T23:50:38.673Z,99738.19
2022-08-07T23:54:52.060Z,99741.59
2022-08-07T23:59:10.858Z,99745.81
